createdAt,value
2023-01-09T00:01:19.419Z,0.50
2023-01-09T00:03:46.356Z,0.48
2023-01-09T00:06:12.893Z,0.40
2023-01-09T00:08:39.647Z,0.33
2023-01-09T00:11:06.586Z,0.34
2023-01-09T00:13:33.078Z,0.39
2023-01-09T00:15:59.903Z,0.42
2023-01-09T00:18:26.430Z,0.47
2023-01-09T00:20:52.999Z,0.45
2023-01-09T00:23:19.469Z,0.73
2023-01-09T00:25:45.999Z,0.62
2023-01-09T00:28:12.483Z,0.50
2023-01-09T00:30:39.128Z,0.37
2023-01-09T00:33:05.722Z,0.26
2023-01-09T00:35:32.203Z,0.24
2023-01-09T00:37:58.834Z,0.40
2023-01-09T00:40:25.447Z,0.49
2023-01-09T00:42:55.192Z,0.64
2023-01-09T00:45:28.755Z,0.55
2023-01-09T00:47:58.354Z,0.50
2023-01-09T00:50:28.030Z,0.41
2023-01-09T00:52:55.923Z,0.35
2023-01-09T00:55:23.097Z,0.33
2023-01-09T00:57:49.714Z,0.33
2023-01-09T01:00:16.485Z,0.45
2023-01-09T01:02:43.006Z,0.39
2023-01-09T01:05:28.455Z,0.33
2023-01-09T01:07:54.945Z,0.32
2023-01-09T01:10:23.085Z,0.32
2023-01-09T01:12:49.923Z,0.35
2023-01-09T01:15:17.307Z,0.32
2023-01-09T01:17:44.424Z,0.30
2023-01-09T01:20:14.610Z,0.30
2023-01-09T01:22:44.240Z,0.32
2023-01-09T01:25:11.854Z,0.30
2023-01-09T01:27:38.400Z,0.27
2023-01-09T01:30:05.637Z,0.23
2023-01-09T01:32:32.132Z,0.16
2023-01-09T01:34:58.627Z,0.16
2023-01-09T01:37:25.156Z,0.27
2023-01-09T01:39:51.908Z,0.46
2023-01-09T01:42:18.542Z,0.44
2023-01-09T01:45:00.409Z,0.40
2023-01-09T01:47:30.497Z,0.34
2023-01-09T01:49:57.093Z,0.26
2023-01-09T01:52:24.704Z,0.23
2023-01-09T01:54:51.529Z,0.18
2023-01-09T01:57:18.152Z,0.19
2023-01-09T01:59:50.405Z,0.20
2023-01-09T02:02:22.529Z,0.44
2023-01-09T02:04:51.092Z,0.36
2023-01-09T02:07:17.868Z,0.24
2023-01-09T02:09:47.293Z,0.21
2023-01-09T02:12:23.860Z,0.17
2023-01-09T02:15:09.200Z,0.21
2023-01-09T02:17:44.995Z,0.22
2023-01-09T02:20:11.515Z,0.22
2023-01-09T02:22:57.050Z,0.20
2023-01-09T02:25:42.121Z,0.29
2023-01-09T02:28:27.538Z,0.26
2023-01-09T02:31:12.674Z,0.25
2023-01-09T02:33:42.039Z,0.22
2023-01-09T02:36:11.681Z,0.22
2023-01-09T02:38:56.782Z,0.25
2023-01-09T02:41:38.186Z,0.32
2023-01-09T02:44:23.057Z,0.36
2023-01-09T02:47:00.152Z,0.48
2023-01-09T02:49:27.535Z,0.45
2023-01-09T02:51:59.163Z,0.50
2023-01-09T02:54:37.835Z,0.66
2023-01-09T02:57:16.328Z,0.62
2023-01-09T02:59:45.611Z,0.71
2023-01-09T03:02:12.095Z,0.65
2023-01-09T03:04:46.512Z,0.63
2023-01-09T03:07:16.099Z,0.67
2023-01-09T03:09:43.453Z,0.69
2023-01-09T03:12:09.952Z,0.74
2023-01-09T03:14:38.565Z,0.67
2023-01-09T03:17:07.776Z,0.68
2023-01-09T03:19:35.278Z,0.65
2023-01-09T03:22:02.075Z,0.62
2023-01-09T03:24:28.681Z,0.73
2023-01-09T03:26:55.547Z,0.66
2023-01-09T03:29:22.137Z,0.58
2023-01-09T03:31:48.761Z,0.59
2023-01-09T03:34:15.362Z,0.57
2023-01-09T03:36:41.959Z,0.56
2023-01-09T03:39:08.484Z,0.48
2023-01-09T03:41:35.016Z,0.44
2023-01-09T03:44:01.521Z,0.47
2023-01-09T03:46:28.030Z,0.46
2023-01-09T03:48:54.541Z,0.42
2023-01-09T03:51:21.052Z,0.44
2023-01-09T03:53:47.578Z,0.43
2023-01-09T03:56:14.077Z,0.39
2023-01-09T03:58:40.672Z,0.40
2023-01-09T04:01:12.961Z,0.43
2023-01-09T04:03:40.165Z,0.45
2023-01-09T04:06:07.175Z,0.41
2023-01-09T04:08:33.874Z,0.42
2023-01-09T04:11:00.383Z,0.52
2023-01-09T04:13:26.909Z,0.61
2023-01-09T04:15:53.410Z,0.53
2023-01-09T04:18:19.892Z,0.49
2023-01-09T04:20:47.537Z,0.49
2023-01-09T04:23:14.110Z,0.50
2023-01-09T04:25:40.614Z,0.53
2023-01-09T04:28:07.144Z,0.54
2023-01-09T04:30:33.647Z,0.55
2023-01-09T04:33:00.185Z,0.57
2023-01-09T04:35:26.659Z,0.60
2023-01-09T04:37:53.198Z,0.60
2023-01-09T04:40:19.897Z,0.58
2023-01-09T04:42:46.540Z,0.61
2023-01-09T04:45:15.508Z,0.65
2023-01-09T04:47:42.046Z,0.65
2023-01-09T04:50:09.266Z,0.61
2023-01-09T04:52:38.144Z,0.70
2023-01-09T04:55:05.670Z,0.68
2023-01-09T04:57:32.238Z,0.73
2023-01-09T04:59:58.745Z,0.78
2023-01-09T05:02:25.271Z,0.77
2023-01-09T05:04:51.777Z,0.94
2023-01-09T05:07:18.370Z,0.88
2023-01-09T05:09:44.906Z,0.84
2023-01-09T05:12:11.502Z,0.86
2023-01-09T05:14:37.993Z,0.81
2023-01-09T05:17:04.521Z,0.82
2023-01-09T05:19:31.014Z,0.80
2023-01-09T05:21:57.506Z,0.79
2023-01-09T05:24:24.039Z,0.76
2023-01-09T05:26:50.535Z,0.78
2023-01-09T05:29:17.194Z,0.83
2023-01-09T05:31:43.830Z,0.91
2023-01-09T05:34:10.387Z,0.90
2023-01-09T05:36:36.902Z,0.97
2023-01-09T05:39:04.055Z,0.90
2023-01-09T05:41:30.624Z,0.89
2023-01-09T05:43:57.176Z,0.90
2023-01-09T05:46:23.661Z,0.90
2023-01-09T05:48:50.251Z,0.94
2023-01-09T05:51:16.743Z,0.93
2023-01-09T05:53:43.279Z,1.08
2023-01-09T05:56:11.686Z,1.03
2023-01-09T05:58:38.539Z,1.00
2023-01-09T06:01:05.158Z,1.02
2023-01-09T06:03:31.809Z,1.20
2023-01-09T06:05:58.319Z,1.15
2023-01-09T06:08:24.849Z,1.13
2023-01-09T06:10:51.413Z,1.07
2023-01-09T06:13:17.983Z,1.05
2023-01-09T06:15:44.586Z,1.10
2023-01-09T06:18:11.160Z,1.21
2023-01-09T06:20:37.695Z,1.13
2023-01-09T06:23:04.231Z,1.07
2023-01-09T06:25:30.847Z,1.08
2023-01-09T06:27:57.363Z,1.09
2023-01-09T06:30:23.871Z,1.08
2023-01-09T06:32:50.610Z,1.07
2023-01-09T06:35:20.947Z,1.12
2023-01-09T06:37:48.383Z,1.05
2023-01-09T06:40:14.994Z,0.99
2023-01-09T06:42:45.251Z,0.98
2023-01-09T06:45:12.318Z,0.96
2023-01-09T06:47:39.475Z,0.94
2023-01-09T06:50:06.448Z,0.93
2023-01-09T06:52:32.943Z,0.91
2023-01-09T06:54:59.449Z,0.87
2023-01-09T06:57:26.360Z,0.85
2023-01-09T06:59:52.973Z,0.86
2023-01-09T07:02:20.463Z,0.80
2023-01-09T07:04:47.115Z,0.94
2023-01-09T07:07:13.917Z,1.08
2023-01-09T07:09:40.463Z,1.22
2023-01-09T07:12:07.063Z,1.19
2023-01-09T07:14:34.191Z,1.09
2023-01-09T07:17:00.718Z,0.95
2023-01-09T07:19:27.244Z,0.93
2023-01-09T07:21:53.775Z,0.92
2023-01-09T07:24:20.259Z,0.95
2023-01-09T07:26:46.719Z,1.21
2023-01-09T07:29:13.304Z,1.26
2023-01-09T07:31:39.849Z,1.22
2023-01-09T07:34:06.433Z,1.23
2023-01-09T07:36:32.886Z,1.31
2023-01-09T07:38:59.407Z,1.40
2023-01-09T07:41:25.982Z,1.39
2023-01-09T07:43:52.490Z,1.35
2023-01-09T07:46:19.046Z,1.42
2023-01-09T07:48:45.610Z,1.44
2023-01-09T07:51:12.819Z,1.58
2023-01-09T07:53:39.330Z,1.71
2023-01-09T07:56:06.036Z,1.73
2023-01-09T07:58:32.603Z,1.78
2023-01-09T08:00:59.149Z,1.87
2023-01-09T08:03:26.938Z,2.00
2023-01-09T08:05:53.493Z,2.01
2023-01-09T08:08:20.102Z,2.02
2023-01-09T08:10:46.638Z,2.02
2023-01-09T08:13:13.133Z,2.00
2023-01-09T08:15:39.614Z,1.99
2023-01-09T08:18:06.190Z,2.05
2023-01-09T08:20:32.894Z,2.10
2023-01-09T08:22:59.419Z,2.19
2023-01-09T08:25:25.927Z,2.19
2023-01-09T08:27:52.477Z,2.23
2023-01-09T08:30:19.631Z,2.26
2023-01-09T08:32:50.387Z,2.30
2023-01-09T08:35:17.080Z,2.34
2023-01-09T08:37:44.578Z,2.42
2023-01-09T08:40:11.744Z,2.47
2023-01-09T08:42:56.463Z,2.48
2023-01-09T08:45:41.444Z,2.51
2023-01-09T08:48:07.982Z,2.56
2023-01-09T08:50:34.577Z,2.62
2023-01-09T08:53:01.160Z,2.67
2023-01-09T08:55:27.707Z,2.69
2023-01-09T08:57:54.721Z,2.81
2023-01-09T09:00:22.795Z,2.85
2023-01-09T09:02:59.567Z,2.89
2023-01-09T09:05:27.310Z,2.94
2023-01-09T09:07:55.697Z,2.98
2023-01-09T09:10:23.172Z,3.08
2023-01-09T09:12:54.058Z,3.40
2023-01-09T09:15:24.245Z,3.34
2023-01-09T09:17:58.057Z,3.33
2023-01-09T09:20:25.844Z,3.39
2023-01-09T09:22:52.747Z,3.50
2023-01-09T09:25:19.542Z,3.63
2023-01-09T09:27:46.041Z,3.71
2023-01-09T09:30:14.080Z,3.79
2023-01-09T09:32:40.720Z,3.77
2023-01-09T09:35:07.731Z,3.78
2023-01-09T09:37:34.444Z,3.77
2023-01-09T09:40:13.530Z,3.75
2023-01-09T09:43:05.748Z,3.77
2023-01-09T09:45:44.267Z,3.81
2023-01-09T09:48:10.770Z,3.87
2023-01-09T09:50:43.359Z,4.07
2023-01-09T09:53:27.588Z,4.08
2023-01-09T09:55:54.676Z,4.10
2023-01-09T09:58:30.661Z,4.13
2023-01-09T10:00:58.436Z,4.26
2023-01-09T10:03:33.424Z,4.32
2023-01-09T10:06:02.807Z,4.57
2023-01-09T10:08:32.138Z,4.62
2023-01-09T10:10:59.067Z,4.52
2023-01-09T10:13:44.670Z,4.48
2023-01-09T10:16:11.209Z,4.49
2023-01-09T10:18:56.097Z,4.61
2023-01-09T10:21:22.622Z,4.55
2023-01-09T10:23:55.063Z,4.44
2023-01-09T10:26:43.587Z,4.40
2023-01-09T10:29:28.858Z,4.36
2023-01-09T10:32:02.847Z,4.30
2023-01-09T10:34:48.244Z,4.29
2023-01-09T10:37:17.507Z,4.57
2023-01-09T10:39:44.008Z,4.60
2023-01-09T10:42:22.534Z,4.61
2023-01-09T10:44:53.391Z,4.64
2023-01-09T10:47:31.702Z,4.67
2023-01-09T10:49:58.934Z,4.78
2023-01-09T10:52:28.888Z,4.80
2023-01-09T10:54:56.601Z,4.74
2023-01-09T10:57:43.441Z,5.08
2023-01-09T11:00:17.537Z,5.20
2023-01-09T11:02:44.492Z,5.14
2023-01-09T11:05:32.706Z,5.04
2023-01-09T11:08:22.572Z,4.96
2023-01-09T11:10:56.165Z,4.90
2023-01-09T11:13:25.915Z,5.03
2023-01-09T11:16:10.751Z,4.92
2023-01-09T11:18:48.181Z,5.04
2023-01-09T11:21:35.675Z,4.92
2023-01-09T11:24:21.424Z,4.97
2023-01-09T11:26:49.158Z,4.93
2023-01-09T11:29:26.112Z,5.04
2023-01-09T11:31:56.201Z,5.09
2023-01-09T11:34:25.228Z,5.08
2023-01-09T11:36:53.683Z,5.26
2023-01-09T11:39:25.173Z,5.19
2023-01-09T11:41:59.245Z,5.26
2023-01-09T11:44:26.254Z,5.25
2023-01-09T11:46:52.882Z,5.27
2023-01-09T11:49:28.613Z,5.19
2023-01-09T11:52:14.001Z,5.21
2023-01-09T11:54:46.848Z,5.12
2023-01-09T11:57:13.427Z,5.02
2023-01-09T11:59:39.910Z,4.99
2023-01-09T12:02:18.382Z,4.92
2023-01-09T12:04:53.734Z,4.97
2023-01-09T12:07:38.893Z,5.16
2023-01-09T12:10:08.459Z,5.08
2023-01-09T12:12:46.975Z,5.00
2023-01-09T12:15:21.071Z,4.93
2023-01-09T12:17:50.348Z,4.89
2023-01-09T12:20:22.766Z,4.87
2023-01-09T12:22:49.212Z,4.96
2023-01-09T12:25:15.762Z,4.96
2023-01-09T12:27:45.260Z,4.88
2023-01-09T12:30:41.183Z,4.85
2023-01-09T12:33:07.724Z,4.96
2023-01-09T12:35:38.139Z,4.92
2023-01-09T12:38:10.484Z,4.89
2023-01-09T12:40:42.810Z,4.90
2023-01-09T12:43:32.167Z,4.87
2023-01-09T12:46:04.762Z,4.89
2023-01-09T12:48:45.491Z,4.91
2023-01-09T12:51:24.130Z,5.00
2023-01-09T12:53:56.300Z,4.97
2023-01-09T12:56:25.385Z,4.99
2023-01-09T12:58:57.632Z,5.13
2023-01-09T13:01:32.683Z,5.19
2023-01-09T13:04:15.408Z,5.11
2023-01-09T13:06:45.796Z,5.15
2023-01-09T13:09:22.031Z,5.20
2023-01-09T13:12:03.158Z,5.31
2023-01-09T13:14:40.321Z,5.23
2023-01-09T13:17:11.104Z,5.10
2023-01-09T13:19:39.618Z,5.22
2023-01-09T13:22:07.147Z,5.10
2023-01-09T13:24:51.865Z,5.01
2023-01-09T13:27:20.288Z,4.99
2023-01-09T13:29:50.424Z,4.96
2023-01-09T13:32:35.333Z,4.93
2023-01-09T13:35:02.295Z,4.92
2023-01-09T13:37:30.041Z,4.89
2023-01-09T13:39:58.067Z,4.81
2023-01-09T13:42:39.836Z,4.99
2023-01-09T13:45:10.768Z,5.03
2023-01-09T13:47:37.501Z,4.90
2023-01-09T13:50:21.608Z,4.85
2023-01-09T13:52:48.577Z,5.10
2023-01-09T13:55:15.083Z,5.01
2023-01-09T13:58:00.126Z,4.88
2023-01-09T14:00:26.591Z,4.93
2023-01-09T14:02:56.692Z,5.02
2023-01-09T14:05:23.176Z,5.00
2023-01-09T14:07:51.552Z,4.96
2023-01-09T14:10:24.250Z,4.87
2023-01-09T14:12:52.038Z,4.81
2023-01-09T14:15:26.994Z,4.95
2023-01-09T14:18:01.717Z,4.90
2023-01-09T14:20:31.367Z,4.87
2023-01-09T14:23:18.113Z,4.86
2023-01-09T14:25:45.417Z,4.82
2023-01-09T14:28:28.499Z,4.75
2023-01-09T14:30:55.028Z,4.74
2023-01-09T14:33:27.628Z,4.74
2023-01-09T14:36:03.097Z,4.74
2023-01-09T14:38:32.354Z,4.74
2023-01-09T14:41:19.166Z,4.72
2023-01-09T14:43:49.381Z,4.69
2023-01-09T14:46:17.011Z,4.61
2023-01-09T14:48:54.153Z,4.59
2023-01-09T14:51:22.256Z,4.54
2023-01-09T14:53:51.732Z,4.53
2023-01-09T14:56:28.912Z,4.53
2023-01-09T14:59:05.543Z,4.59
2023-01-09T15:01:33.090Z,4.92
2023-01-09T15:04:02.439Z,4.68
2023-01-09T15:06:30.270Z,4.61
2023-01-09T15:08:59.059Z,4.63
2023-01-09T15:11:26.219Z,4.63
2023-01-09T15:13:53.669Z,4.77
2023-01-09T15:16:22.390Z,4.58
2023-01-09T15:18:51.474Z,4.75
2023-01-09T15:21:20.421Z,4.66
2023-01-09T15:23:46.956Z,4.48
2023-01-09T15:26:26.268Z,4.59
2023-01-09T15:28:54.017Z,4.45
2023-01-09T15:31:23.951Z,4.45
2023-01-09T15:33:53.122Z,4.43
2023-01-09T15:36:26.942Z,4.32
2023-01-09T15:38:54.347Z,4.17
2023-01-09T15:41:43.799Z,4.28
2023-01-09T15:44:16.155Z,4.11
2023-01-09T15:46:46.365Z,4.03
2023-01-09T15:49:13.920Z,3.98
2023-01-09T15:51:42.165Z,4.07
2023-01-09T15:54:13.849Z,4.02
2023-01-09T15:56:40.421Z,4.07
2023-01-09T15:59:22.275Z,4.04
2023-01-09T16:02:15.537Z,3.90
2023-01-09T16:04:42.138Z,3.82
2023-01-09T16:07:13.666Z,3.87
2023-01-09T16:09:40.135Z,3.88
2023-01-09T16:12:06.844Z,4.14
2023-01-09T16:14:45.765Z,4.04
2023-01-09T16:17:15.899Z,3.85
2023-01-09T16:19:46.989Z,3.75
2023-01-09T16:22:23.882Z,3.71
2023-01-09T16:24:53.622Z,3.64
2023-01-09T16:27:27.162Z,3.75
2023-01-09T16:29:57.822Z,3.74
2023-01-09T16:32:32.460Z,3.80
2023-01-09T16:35:14.485Z,4.26
2023-01-09T16:37:41.012Z,4.21
2023-01-09T16:40:25.903Z,4.10
2023-01-09T16:43:07.287Z,4.10
2023-01-09T16:45:40.962Z,4.20
2023-01-09T16:48:20.320Z,4.55
2023-01-09T16:50:47.206Z,4.77
2023-01-09T16:53:17.894Z,4.72
2023-01-09T16:55:45.280Z,4.66
2023-01-09T16:58:18.361Z,4.64
2023-01-09T17:00:45.242Z,4.69
2023-01-09T17:03:13.837Z,4.81
2023-01-09T17:05:40.468Z,4.66
2023-01-09T17:08:19.762Z,4.59
2023-01-09T17:10:46.308Z,4.85
2023-01-09T17:13:12.805Z,4.76
2023-01-09T17:15:39.369Z,4.79
2023-01-09T17:18:06.799Z,5.13
2023-01-09T17:20:34.466Z,5.02
2023-01-09T17:23:01.027Z,4.75
2023-01-09T17:25:46.210Z,4.69
2023-01-09T17:28:33.565Z,4.59
2023-01-09T17:31:00.658Z,4.57
2023-01-09T17:33:27.470Z,4.59
2023-01-09T17:35:54.332Z,4.48
2023-01-09T17:38:20.829Z,4.37
2023-01-09T17:40:47.409Z,4.29
2023-01-09T17:43:13.991Z,4.21
2023-01-09T17:45:41.654Z,4.18
2023-01-09T17:48:15.780Z,4.10
2023-01-09T17:50:42.340Z,4.05
2023-01-09T17:53:08.886Z,4.24
2023-01-09T17:55:36.092Z,4.22
2023-01-09T17:58:02.852Z,4.29
2023-01-09T18:00:30.820Z,4.12
2023-01-09T18:02:57.472Z,4.07
2023-01-09T18:05:24.882Z,4.07
2023-01-09T18:07:51.696Z,4.20
2023-01-09T18:10:19.700Z,4.16
2023-01-09T18:12:49.891Z,4.25
2023-01-09T18:15:16.914Z,4.26
2023-01-09T18:17:43.534Z,4.31
2023-01-09T18:20:10.813Z,4.25
2023-01-09T18:22:37.386Z,4.30
2023-01-09T18:25:04.304Z,4.13
2023-01-09T18:27:31.091Z,4.10
2023-01-09T18:29:57.651Z,4.21
2023-01-09T18:32:24.599Z,4.29
2023-01-09T18:34:51.178Z,4.34
2023-01-09T18:37:17.738Z,4.28
2023-01-09T18:39:44.386Z,4.18
2023-01-09T18:42:10.934Z,4.13
2023-01-09T18:44:37.420Z,4.15
2023-01-09T18:47:04.019Z,4.20
2023-01-09T18:49:30.547Z,4.24
2023-01-09T18:51:57.116Z,4.31
2023-01-09T18:54:23.730Z,4.24
2023-01-09T18:56:50.218Z,4.16
2023-01-09T18:59:16.738Z,4.07
2023-01-09T19:01:43.455Z,4.05
2023-01-09T19:04:10.083Z,4.20
2023-01-09T19:06:37.578Z,4.30
2023-01-09T19:09:05.382Z,4.28
2023-01-09T19:11:31.895Z,4.51
2023-01-09T19:13:58.465Z,4.35
2023-01-09T19:16:25.043Z,4.59
2023-01-09T19:18:51.587Z,4.59
2023-01-09T19:21:19.562Z,4.47
2023-01-09T19:23:46.929Z,4.34
2023-01-09T19:26:20.938Z,4.42
2023-01-09T19:28:48.273Z,4.58
2023-01-09T19:31:15.039Z,4.89
2023-01-09T19:33:41.608Z,4.72
2023-01-09T19:36:08.307Z,4.62
2023-01-09T19:38:35.033Z,5.13
2023-01-09T19:41:14.235Z,4.93
2023-01-09T19:43:41.509Z,4.78
2023-01-09T19:46:13.232Z,4.77
2023-01-09T19:48:39.766Z,5.03
2023-01-09T19:51:07.317Z,4.98
2023-01-09T19:53:34.977Z,4.91
2023-01-09T19:56:15.492Z,4.87
2023-01-09T19:58:43.092Z,4.93
2023-01-09T20:01:13.988Z,4.79
2023-01-09T20:03:40.963Z,4.89
2023-01-09T20:06:08.436Z,4.80
2023-01-09T20:08:34.964Z,4.90
2023-01-09T20:11:03.518Z,4.89
2023-01-09T20:13:30.025Z,4.82
2023-01-09T20:15:57.976Z,5.07
2023-01-09T20:18:24.507Z,4.96
2023-01-09T20:20:52.495Z,4.97
2023-01-09T20:23:22.595Z,5.01
2023-01-09T20:25:49.798Z,5.36
2023-01-09T20:28:17.070Z,5.20
2023-01-09T20:30:47.735Z,5.13
2023-01-09T20:33:15.320Z,5.10
2023-01-09T20:35:41.853Z,5.65
2023-01-09T20:38:09.008Z,5.36
2023-01-09T20:40:35.965Z,5.16
2023-01-09T20:43:02.886Z,5.18
2023-01-09T20:45:29.729Z,5.15
2023-01-09T20:47:56.367Z,5.06
2023-01-09T20:50:22.914Z,4.97
2023-01-09T20:52:49.437Z,5.09
2023-01-09T20:55:16.077Z,5.47
2023-01-09T20:57:42.650Z,5.14
2023-01-09T21:00:09.888Z,5.10
2023-01-09T21:02:36.449Z,5.09
2023-01-09T21:05:03.459Z,5.00
2023-01-09T21:07:30.141Z,4.95
2023-01-09T21:09:56.671Z,5.14
2023-01-09T21:12:34.900Z,5.07
2023-01-09T21:15:04.574Z,5.05
2023-01-09T21:17:38.329Z,5.35
2023-01-09T21:20:06.260Z,5.23
2023-01-09T21:22:33.977Z,5.32
2023-01-09T21:25:00.518Z,5.32
2023-01-09T21:27:36.529Z,5.32
2023-01-09T21:30:06.713Z,5.27
2023-01-09T21:32:33.235Z,5.18
2023-01-09T21:35:03.285Z,5.15
2023-01-09T21:37:30.377Z,5.12
2023-01-09T21:39:56.870Z,5.10
2023-01-09T21:42:42.144Z,5.38
2023-01-09T21:45:31.781Z,5.29
2023-01-09T21:47:58.497Z,5.21
2023-01-09T21:50:25.043Z,5.26
2023-01-09T21:52:51.535Z,5.71
2023-01-09T21:55:18.070Z,5.49
2023-01-09T21:57:44.563Z,5.35
2023-01-09T22:00:11.371Z,5.27
2023-01-09T22:02:39.252Z,5.46
2023-01-09T22:05:05.927Z,5.41
2023-01-09T22:07:32.411Z,5.37
2023-01-09T22:09:59.292Z,5.41
2023-01-09T22:12:25.820Z,5.46
2023-01-09T22:14:52.305Z,5.46
2023-01-09T22:17:18.840Z,5.62
2023-01-09T22:19:45.437Z,5.53
2023-01-09T22:22:11.995Z,5.76
2023-01-09T22:24:38.532Z,5.63
2023-01-09T22:27:05.369Z,5.60
2023-01-09T22:29:31.959Z,5.60
2023-01-09T22:31:58.571Z,5.49
2023-01-09T22:34:25.280Z,5.41
2023-01-09T22:36:51.830Z,5.50
2023-01-09T22:39:19.513Z,5.54
2023-01-09T22:41:50.264Z,5.72
2023-01-09T22:44:16.908Z,5.66
2023-01-09T22:46:43.483Z,5.57
2023-01-09T22:49:12.237Z,5.63
2023-01-09T22:51:39.039Z,5.76
2023-01-09T22:54:05.649Z,5.82
2023-01-09T22:56:35.144Z,5.77
2023-01-09T22:59:01.796Z,5.68
2023-01-09T23:01:28.477Z,5.87
2023-01-09T23:03:54.995Z,5.76
2023-01-09T23:06:22.521Z,5.68
2023-01-09T23:08:52.947Z,5.54
2023-01-09T23:11:42.139Z,5.45
2023-01-09T23:14:08.949Z,5.67
2023-01-09T23:16:35.613Z,5.63
2023-01-09T23:19:02.237Z,5.62
2023-01-09T23:21:28.825Z,5.53
2023-01-09T23:23:55.401Z,5.54
2023-01-09T23:26:21.968Z,5.49
2023-01-09T23:28:48.563Z,5.73
2023-01-09T23:31:15.699Z,5.72
2023-01-09T23:33:42.351Z,5.86
2023-01-09T23:36:09.308Z,5.77
2023-01-09T23:38:35.907Z,5.84
2023-01-09T23:41:02.381Z,5.66
2023-01-09T23:43:28.956Z,5.56
2023-01-09T23:45:55.558Z,5.50
2023-01-09T23:48:22.181Z,5.55
2023-01-09T23:50:50.466Z,5.62
2023-01-09T23:53:17.340Z,5.57
2023-01-09T23:55:44.480Z,5.45
2023-01-09T23:58:11.112Z,5.70
